Sevilla/San Pablo Airport

Airport
ICAO code: 
LEZL
IATA Code: 
SVQ
Summary
ICAO Region: 
EUR
Territory: 
Location: 
Sevilla, Andalusia
Serving: 
Sevilla
Elevation: 
112 ft
Coordinates: 
Aerial View: 
37° 25' 8.247" N, 5° 53' 54.238" W
Airport WX: 
Cumulonimbus
Metar
Observation
LEZL 220600Z 07012KT CAVOK 06/01 Q1024 NOSIG
Station
Sevilla / San Pablo
Date/Time
2022-01-22 06:00:00
Wind direction
70°
Wind speed
12 kts
Lowest cloud amount
clouds and visibility OK
Temperature
6°C
Dew point
1°C
Humidity
70%
QNH
1024 hPa
Weather condition
n/a

Seville/San Pablo Airport is the main airport for Seville and is Andalusia’s second airport, behind Málaga. Also known as San Pablo Airport, it is located 10 km northwest of Seville.

Climatology

Dry-summer subtropical ”Mediterranean" climate (Köppen climate classification Csa) - characterized by hot, dry summers and mild winters. During the summer, subtropical high pressure cells dominate, making rainfall unlikely except for the occasional thunderstorm. In the winter, periodic storms bring rain.

Runways

Designator Length Width Surface Rops
9/27 3360 45 ASP Yes/Yes
Airport map: 
Aerial View: 

Accidents and Serious Incidents at or in the vicinity of LEZL

SKYbrary Partners:

Safety knowledge contributed by: